Time,TemperatureF,DewpointF,PressureIn,WindDirection,WindDirectionDegrees,WindSpeedMPH,WindSpeedGustMPH,Humidity,HourlyPrecipIn,Conditions,Clouds,dailyrainin,SoftwareType,DateUTC
2013-04-03 00:00:00,72.5,66.3,30.03,ENE,71,0.0,0.0,81,0.00,,OVC,0.00,WeatherDisplay:10.37,2013-04-03 04:00:00,
2013-04-03 00:05:00,72.5,66.3,30.03,ENE,70,0.0,0.0,81,0.00,,OVC,0.00,WeatherDisplay:10.37,2013-04-03 04:05:00,
2013-04-03 00:10:00,72.5,66.3,30.03,ENE,69,0.0,0.0,81,0.00,,OVC,0.00,WeatherDisplay:10.37,2013-04-03 04:10:00,
2013-04-03 00:15:00,72.3,66.1,30.03,ENE,70,0.0,0.0,81,0.00,,OVC,0.00,WeatherDisplay:10.37,2013-04-03 04:15:00,
2013-04-03 00:20:00,72.1,65.9,30.03,ENE,70,0.0,0.0,81,0.00,,OVC,0.00,WeatherDisplay:10.37,2013-04-03 04:20:00,
2013-04-03 00:25:00,72.0,65.8,30.03,ENE,70,0.0,0.0,81,0.00,,OVC,0.00,WeatherDisplay:10.37,2013-04-03 04:25:00,
2013-04-03 00:31:00,72.0,66.2,30.04,ENE,70,0.0,0.0,82,0.00,,OVC,0.00,WeatherDisplay:10.37,2013-04-03 04:31:00,
2013-04-03 00:36:00,71.8,66.0,30.04,ENE,70,0.0,0.0,82,0.00,,OVC,0.00,WeatherDisplay:10.37,2013-04-03 04:36:00,
2013-04-03 00:41:00,71.6,65.8,30.04,ENE,70,0.0,0.0,82,0.00,,OVC,0.00,WeatherDisplay:10.37,2013-04-03 04:41:00,
2013-04-03 00:46:00,71.5,66.1,30.03,ENE,70,0.0,0.0,83,0.00,,OVC,0.00,WeatherDisplay:10.37,2013-04-03 04:46:00,
2013-04-03 00:51:00,71.3,65.9,30.03,ENE,70,0.0,0.0,83,0.00,,OVC,0.00,WeatherDisplay:10.37,2013-04-03 04:51:00,
2013-04-03 00:56:00,70.9,65.8,30.03,ENE,70,0.0,0.0,84,0.00,,OVC,0.00,WeatherDisplay:10.37,2013-04-03 04:56:00,
2013-04-03 01:01:00,70.8,65.7,30.03,ENE,70,0.0,0.0,84,0.00,,OVC,0.00,WeatherDisplay:10.37,2013-04-03 05:01:00,
2013-04-03 01:06:00,70.6,65.9,30.03,ENE,70,0.0,0.0,85,0.00,,OVC,0.00,WeatherDisplay:10.37,2013-04-03 05:06:00,
2013-04-03 01:11:00,70.4,65.7,30.03,ENE,70,0.0,0.0,85,0.00,,OVC,0.00,WeatherDisplay:10.37,2013-04-03 05:11:00,
2013-04-03 01:16:00,70.3,65.6,30.03,ENE,70,0.0,0.0,85,0.00,,OVC,0.00,WeatherDisplay:10.37,2013-04-03 05:16:00,
2013-04-03 01:21:00,70.1,65.4,30.03,ENE,70,0.0,0.0,85,0.00,,OVC,0.00,WeatherDisplay:10.37,2013-04-03 05:21:00,
2013-04-03 01:26:00,69.9,65.5,30.03,ENE,70,0.0,0.0,86,0.00,,OVC,0.00,WeatherDisplay:10.37,2013-04-03 05:26:00,
2013-04-03 01:31:00,69.8,65.4,30.03,ENE,70,0.0,0.0,86,0.00,,OVC,0.00,WeatherDisplay:10.37,2013-04-03 05:31:00,
2013-04-03 01:37:00,69.6,65.6,30.03,ENE,70,0.0,0.0,87,0.00,,OVC,0.00,WeatherDisplay:10.37,2013-04-03 05:37:00,
2013-04-03 01:42:00,69.4,65.4,30.03,ENE,70,0.0,0.0,87,0.00,,OVC,0.00,WeatherDisplay:10.37,2013-04-03 05:42:00,
2013-04-03 01:47:00,69.4,65.4,30.02,ENE,70,0.0,0.0,87,0.00,,OVC,0.00,WeatherDisplay:10.37,2013-04-03 05:47:00,
2013-04-03 01:52:00,69.3,65.6,30.02,ENE,69,0.0,0.0,88,0.00,,OVC,0.00,WeatherDisplay:10.37,2013-04-03 05:52:00,
2013-04-03 01:57:00,69.3,65.6,30.02,ENE,69,0.0,0.0,88,0.00,,OVC,0.00,WeatherDisplay:10.37,2013-04-03 05:57:00,
2013-04-03 02:02:00,69.1,65.4,30.02,ENE,69,0.0,0.0,88,0.00,,OVC,0.00,WeatherDisplay:10.37,2013-04-03 06:02:00,
2013-04-03 02:07:00,68.9,65.2,30.02,ENE,69,0.0,0.0,88,0.00,,OVC,0.00,WeatherDisplay:10.37,2013-04-03 06:07:00,
2013-04-03 02:12:00,68.8,65.1,30.02,ENE,69,0.0,0.0,88,0.00,,OVC,0.00,WeatherDisplay:10.37,2013-04-03 06:12:00,
2013-04-03 02:17:00,68.8,65.4,30.02,ENE,69,0.0,0.0,89,0.00,,OVC,0.00,WeatherDisplay:10.37,2013-04-03 06:17:00,
2013-04-03 02:22:00,68.6,65.2,30.02,ENE,69,0.0,0.0,89,0.00,,OVC,0.00,WeatherDisplay:10.37,2013-04-03 06:22:00,
2013-04-03 02:27:00,68.4,65.0,30.02,ENE,69,0.0,0.0,89,0.00,,OVC,0.00,WeatherDisplay:10.37,2013-04-03 06:27:00,
2013-04-03 02:32:00,68.1,64.7,30.02,ENE,69,0.0,0.0,89,0.00,,OVC,0.00,WeatherDisplay:10.37,2013-04-03 06:32:00,
2013-04-03 02:37:00,68.1,64.7,30.02,ENE,69,0.0,0.0,89,0.00,,OVC,0.00,WeatherDisplay:10.37,2013-04-03 06:37:00,
2013-04-03 02:42:00,67.9,64.5,30.02,ENE,69,0.0,0.0,89,0.00,,OVC,0.00,WeatherDisplay:10.37,2013-04-03 06:42:00,
2013-04-03 02:47:00,67.9,64.5,30.02,ENE,69,0.0,0.0,89,0.00,,OVC,0.00,WeatherDisplay:10.37,2013-04-03 06:47:00,
2013-04-03 02:52:00,67.9,64.5,30.02,ENE,69,0.0,0.0,89,0.00,,OVC,0.00,WeatherDisplay:10.37,2013-04-03 06:52:00,
2013-04-03 02:57:00,67.8,64.4,30.02,ENE,69,0.0,0.0,89,0.00,,OVC,0.00,WeatherDisplay:10.37,2013-04-03 06:57:00,
2013-04-03 03:02:00,67.6,64.2,30.02,ENE,69,0.0,0.0,89,0.00,,OVC,0.00,WeatherDisplay:10.37,2013-04-03 07:02:00,
2013-04-03 03:07:00,67.4,64.0,30.02,ENE,69,0.0,0.0,89,0.00,,OVC,0.00,WeatherDisplay:10.37,2013-04-03 07:07:00,
2013-04-03 03:12:00,67.4,64.4,30.02,ENE,69,0.0,0.0,90,0.00,,OVC,0.00,WeatherDisplay:10.37,2013-04-03 07:12:00,
2013-04-03 03:17:00,67.6,64.6,30.01,ENE,69,0.0,0.0,90,0.00,,OVC,0.00,WeatherDisplay:10.37,2013-04-03 07:17:00,
2013-04-03 03:22:00,67.9,65.2,30.01,ENE,69,0.0,0.0,91,0.00,,OVC,0.00,WeatherDisplay:10.37,2013-04-03 07:22:00,
2013-04-03 03:27:00,67.9,64.9,30.01,ENE,69,0.0,0.0,90,0.00,,OVC,0.00,WeatherDisplay:10.37,2013-04-03 07:27:00,
2013-04-03 03:33:00,67.6,64.9,30.01,ENE,69,0.0,0.0,91,0.00,,OVC,0.00,WeatherDisplay:10.37,2013-04-03 07:33:00,
2013-04-03 03:38:00,67.6,64.9,30.01,ENE,69,0.0,0.0,91,0.00,,OVC,0.00,WeatherDisplay:10.37,2013-04-03 07:38:00,
2013-04-03 03:43:00,67.4,64.7,30.01,ENE,69,0.0,0.0,91,0.00,,OVC,0.00,WeatherDisplay:10.37,2013-04-03 07:43:00,
2013-04-03 03:48:00,67.4,64.7,30.00,ENE,69,0.0,0.0,91,0.00,,OVC,0.00,WeatherDisplay:10.37,2013-04-03 07:48:00,
2013-04-03 03:53:00,67.3,64.6,30.00,ENE,69,0.0,0.0,91,0.00,,OVC,0.00,WeatherDisplay:10.37,2013-04-03 07:53:00,
2013-04-03 03:58:00,67.1,64.4,30.00,ENE,69,0.0,0.0,91,0.00,,OVC,0.00,WeatherDisplay:10.37,2013-04-03 07:58:00,
2013-04-03 04:03:00,66.9,64.5,30.00,ENE,69,0.0,0.0,92,0.00,,OVC,0.00,WeatherDisplay:10.37,2013-04-03 08:03:00,
2013-04-03 04:08:00,67.1,64.7,30.00,ENE,69,0.0,0.0,92,0.00,,OVC,0.00,WeatherDisplay:10.37,2013-04-03 08:08:00,
2013-04-03 04:13:00,67.1,64.7,30.00,ENE,69,0.0,0.0,92,0.00,,OVC,0.00,WeatherDisplay:10.37,2013-04-03 08:13:00,
2013-04-03 04:18:00,67.1,64.7,30.00,ENE,69,0.0,0.0,92,0.00,,OVC,0.00,WeatherDisplay:10.37,2013-04-03 08:18:00,
2013-04-03 04:23:00,67.3,64.9,30.00,ENE,69,0.0,0.0,92,0.00,,OVC,0.00,WeatherDisplay:10.37,2013-04-03 08:23:00,
2013-04-03 04:28:00,67.1,64.7,30.00,ENE,69,0.0,0.0,92,0.00,,OVC,0.00,WeatherDisplay:10.37,2013-04-03 08:28:00,
2013-04-03 04:33:00,67.1,64.7,29.99,ENE,69,0.0,0.0,92,0.00,,OVC,0.00,WeatherDisplay:10.37,2013-04-03 08:33:00,
2013-04-03 04:38:00,66.9,64.5,29.99,ENE,69,0.0,0.0,92,0.00,,OVC,0.00,WeatherDisplay:10.37,2013-04-03 08:38:00,
2013-04-03 04:43:00,66.9,64.5,29.99,ENE,69,0.0,0.0,92,0.00,,OVC,0.00,WeatherDisplay:10.37,2013-04-03 08:43:00,
2013-04-03 04:48:00,66.9,64.5,29.98,ENE,69,0.0,0.0,92,0.00,,OVC,0.00,WeatherDisplay:10.37,2013-04-03 08:48:00,
2013-04-03 04:53:00,66.9,64.5,29.98,ENE,69,0.0,0.0,92,0.00,,OVC,0.00,WeatherDisplay:10.37,2013-04-03 08:53:00,
2013-04-03 04:58:00,66.8,64.4,29.98,ENE,69,0.0,0.0,92,0.00,,OVC,0.00,WeatherDisplay:10.37,2013-04-03 08:58:00,
2013-04-03 05:03:00,66.8,64.4,29.99,ENE,69,0.0,0.0,92,0.00,,OVC,0.00,WeatherDisplay:10.37,2013-04-03 09:03:00,
2013-04-03 05:08:00,66.8,64.4,29.99,ENE,70,0.0,0.0,92,0.00,,OVC,0.00,WeatherDisplay:10.37,2013-04-03 09:08:00,
2013-04-03 05:13:00,66.8,64.4,29.99,ENE,69,0.0,0.0,92,0.00,,OVC,0.00,WeatherDisplay:10.37,2013-04-03 09:13:00,
2013-04-03 05:18:00,67.3,65.2,29.99,ENE,69,0.0,0.0,93,0.00,,OVC,0.00,WeatherDisplay:10.37,2013-04-03 09:18:00,
2013-04-03 05:23:00,67.3,65.2,29.99,ENE,69,0.0,0.0,93,0.00,,OVC,0.00,WeatherDisplay:10.37,2013-04-03 09:23:00,
2013-04-03 05:28:00,67.3,64.9,29.99,ENE,69,0.0,0.0,92,0.00,,OVC,0.00,WeatherDisplay:10.37,2013-04-03 09:28:00,
2013-04-03 05:34:00,67.1,65.0,29.99,ENE,69,0.0,0.0,93,0.00,,OVC,0.00,WeatherDisplay:10.37,2013-04-03 09:34:00,
2013-04-03 05:39:00,66.9,64.8,29.99,ENE,69,0.0,0.0,93,0.00,,OVC,0.00,WeatherDisplay:10.37,2013-04-03 09:39:00,
2013-04-03 05:44:00,66.9,64.8,29.99,ENE,69,0.0,0.0,93,0.00,,OVC,0.00,WeatherDisplay:10.37,2013-04-03 09:44:00,
2013-04-03 05:49:00,66.9,64.8,29.99,ENE,69,0.0,0.0,93,0.00,,OVC,0.00,WeatherDisplay:10.37,2013-04-03 09:49:00,
2013-04-03 05:54:00,66.9,64.8,29.99,ENE,69,0.0,0.0,93,0.00,,OVC,0.00,WeatherDisplay:10.37,2013-04-03 09:54:00,
2013-04-03 05:59:00,66.9,64.8,29.99,ENE,69,0.0,0.0,93,0.00,,OVC,0.00,WeatherDisplay:10.37,2013-04-03 09:59:00,
2013-04-03 06:04:00,66.8,64.7,29.99,ENE,69,0.0,0.0,93,0.00,,OVC,0.00,WeatherDisplay:10.37,2013-04-03 10:04:00,
2013-04-03 06:09:00,66.9,64.8,29.99,ENE,69,0.0,0.0,93,0.00,,OVC,0.00,WeatherDisplay:10.37,2013-04-03 10:09:00,
2013-04-03 06:14:00,67.1,65.0,29.99,ENE,69,0.0,0.0,93,0.00,,OVC,0.00,WeatherDisplay:10.37,2013-04-03 10:14:00,
2013-04-03 06:19:00,66.9,64.8,29.99,ENE,69,0.0,0.0,93,0.00,,OVC,0.00,WeatherDisplay:10.37,2013-04-03 10:19:00,
2013-04-03 06:24:00,67.3,65.2,29.99,ENE,70,0.0,0.0,93,0.00,,OVC,0.00,WeatherDisplay:10.37,2013-04-03 10:24:00,
2013-04-03 06:29:00,67.3,65.2,29.99,ENE,70,0.0,0.0,93,0.00,,OVC,0.00,WeatherDisplay:10.37,2013-04-03 10:29:00,
2013-04-03 06:34:00,67.1,65.0,29.99,ENE,70,0.0,0.0,93,0.00,,OVC,0.00,WeatherDisplay:10.37,2013-04-03 10:34:00,
2013-04-03 06:39:00,66.9,64.8,29.99,ENE,70,0.0,0.0,93,0.00,,OVC,0.00,WeatherDisplay:10.37,2013-04-03 10:39:00,
2013-04-03 06:44:00,66.8,64.7,29.99,ENE,70,0.0,0.0,93,0.00,,OVC,0.00,WeatherDisplay:10.37,2013-04-03 10:44:00,
2013-04-03 06:49:00,66.6,64.5,29.99,ENE,70,0.0,0.0,93,0.00,,OVC,0.00,WeatherDisplay:10.37,2013-04-03 10:49:00,
2013-04-03 06:54:00,66.4,64.3,29.99,ENE,70,0.0,0.0,93,0.00,,OVC,0.00,WeatherDisplay:10.37,2013-04-03 10:54:00,
2013-04-03 06:59:00,66.4,64.3,30.01,ENE,70,0.0,0.0,93,0.00,,OVC,0.00,WeatherDisplay:10.37,2013-04-03 10:59:00,
2013-04-03 07:04:00,66.4,64.3,30.01,ENE,70,0.0,0.0,93,0.00,,OVC,0.00,WeatherDisplay:10.37,2013-04-03 11:04:00,
2013-04-03 07:09:00,66.4,64.3,30.01,ENE,70,0.0,0.0,93,0.00,,OVC,0.00,WeatherDisplay:10.37,2013-04-03 11:09:00,
2013-04-03 07:14:00,66.4,64.3,30.00,ENE,70,0.0,0.0,93,0.00,,OVC,0.00,WeatherDisplay:10.37,2013-04-03 11:14:00,
2013-04-03 07:19:00,66.4,64.3,30.00,ENE,70,0.0,0.0,93,0.00,,OVC,0.00,WeatherDisplay:10.37,2013-04-03 11:19:00,
2013-04-03 07:24:00,66.6,64.8,30.00,ENE,70,0.0,0.0,94,0.00,,OVC,0.00,WeatherDisplay:10.37,2013-04-03 11:24:00,
2013-04-03 07:29:00,66.6,64.8,30.00,ENE,70,0.0,0.0,94,0.00,,OVC,0.00,WeatherDisplay:10.37,2013-04-03 11:29:00,
2013-04-03 07:34:00,66.8,65.0,30.00,ENE,70,0.0,0.0,94,0.00,,OVC,0.00,WeatherDisplay:10.37,2013-04-03 11:34:00,
2013-04-03 07:39:00,66.8,65.0,30.00,ENE,70,0.0,0.0,94,0.00,,OVC,0.00,WeatherDisplay:10.37,2013-04-03 11:39:00,
2013-04-03 07:44:00,67.1,65.3,30.00,ENE,70,0.0,0.0,94,0.00,,OVC,0.00,WeatherDisplay:10.37,2013-04-03 11:44:00,
2013-04-03 07:49:00,67.3,65.5,30.00,ENE,70,0.0,0.0,94,0.00,,OVC,0.00,WeatherDisplay:10.37,2013-04-03 11:49:00,
2013-04-03 07:54:00,67.8,66.0,30.00,ENE,70,0.0,0.0,94,0.00,,OVC,0.00,WeatherDisplay:10.37,2013-04-03 11:54:00,
2013-04-03 07:59:00,67.9,66.1,30.01,ENE,75,0.0,0.0,94,0.00,,OVC,0.00,WeatherDisplay:10.37,2013-04-03 11:59:00,
2013-04-03 08:04:00,68.3,66.5,30.01,ENE,75,0.0,0.0,94,0.00,,OVC,0.00,WeatherDisplay:10.37,2013-04-03 12:04:00,
2013-04-03 08:09:00,68.9,67.1,30.01,ENE,76,0.0,0.0,94,0.00,,OVC,0.00,WeatherDisplay:10.37,2013-04-03 12:09:00,
2013-04-03 08:14:00,69.4,67.6,30.01,East,101,0.0,0.0,94,0.00,,OVC,0.00,WeatherDisplay:10.37,2013-04-03 12:14:00,
2013-04-03 08:19:00,69.9,68.1,30.01,ESE,111,0.0,0.0,94,0.00,,OVC,0.00,WeatherDisplay:10.37,2013-04-03 12:19:00,
2013-04-03 08:24:00,70.3,68.2,30.01,SE,142,0.0,0.2,93,0.00,,OVC,0.00,WeatherDisplay:10.37,2013-04-03 12:24:00,
2013-04-03 08:29:00,70.8,68.4,30.01,SE,136,0.0,0.0,92,0.00,,OVC,0.00,WeatherDisplay:10.37,2013-04-03 12:29:00,
2013-04-03 08:34:00,71.3,68.5,30.01,SE,130,0.0,0.0,91,0.00,,OVC,0.00,WeatherDisplay:10.37,2013-04-03 12:34:00,
2013-04-03 08:39:00,71.8,68.4,30.01,ESE,119,11.5,0.0,89,0.00,,OVC,0.00,WeatherDisplay:10.37,2013-04-03 12:39:00,
2013-04-03 08:44:00,72.3,68.2,30.02,ESE,103,9.2,9.2,87,0.00,,OVC,0.00,WeatherDisplay:10.37,2013-04-03 12:44:00,
2013-04-03 08:50:00,72.8,67.3,30.02,SE,144,0.0,2.7,83,0.00,,OVC,0.00,WeatherDisplay:10.37,2013-04-03 12:50:00,
2013-04-03 08:55:00,73.5,67.3,30.02,SE,145,3.5,0.0,81,0.00,,OVC,0.00,WeatherDisplay:10.37,2013-04-03 12:55:00,
2013-04-03 09:00:00,74.0,66.7,30.02,SE,136,19.6,19.6,78,0.00,,OVC,0.00,WeatherDisplay:10.37,2013-04-03 13:00:00,
2013-04-03 09:05:00,74.6,66.5,30.02,SE,145,3.5,0.0,76,0.00,,OVC,0.00,WeatherDisplay:10.37,2013-04-03 13:05:00,
2013-04-03 09:10:00,75.1,66.6,30.02,SSE,150,1.2,0.0,75,0.00,,OVC,0.00,WeatherDisplay:10.37,2013-04-03 13:10:00,
2013-04-03 09:15:00,75.3,66.0,30.02,SE,132,2.3,2.3,73,0.00,,OVC,0.00,WeatherDisplay:10.37,2013-04-03 13:15:00,
2013-04-03 09:20:00,75.6,65.9,30.02,SSE,148,8.1,0.0,72,0.00,,OVC,0.00,WeatherDisplay:10.37,2013-04-03 13:20:00,
2013-04-03 09:25:00,76.0,66.3,30.02,SE,142,6.0,6.0,72,0.00,,OVC,0.00,WeatherDisplay:10.37,2013-04-03 13:25:00,
2013-04-03 09:30:00,76.1,66.0,30.02,SE,140,1.2,1.2,71,0.00,,OVC,0.00,WeatherDisplay:10.37,2013-04-03 13:30:00,
2013-04-03 09:35:00,76.1,66.0,30.02,SSE,165,12.7,12.7,71,0.00,,OVC,0.00,WeatherDisplay:10.37,2013-04-03 13:35:00,
2013-04-03 09:40:00,76.3,66.2,30.02,SE,143,17.3,17.3,71,0.00,,OVC,0.00,WeatherDisplay:10.37,2013-04-03 13:40:00,
2013-04-03 09:45:00,76.7,66.2,30.02,SSE,149,5.0,5.0,70,0.00,,OVC,0.00,WeatherDisplay:10.37,2013-04-03 13:45:00,
2013-04-03 09:50:00,76.8,66.3,30.02,SE,134,0.0,0.1,70,0.00,,OVC,0.00,WeatherDisplay:10.37,2013-04-03 13:50:00,
2013-04-03 09:55:00,77.2,67.1,30.02,SE,136,1.2,1.2,71,0.00,,OVC,0.00,WeatherDisplay:10.37,2013-04-03 13:55:00,
2013-04-03 10:00:00,77.4,67.3,30.03,SE,130,0.0,0.0,71,0.00,,OVC,0.00,WeatherDisplay:10.37,2013-04-03 14:00:00,
2013-04-03 10:05:00,77.6,66.6,30.03,SE,139,0.0,0.0,69,0.00,,OVC,0.00,WeatherDisplay:10.37,2013-04-03 14:05:00,
2013-04-03 10:10:00,77.9,66.9,30.03,SE,132,17.3,17.3,69,0.00,,OVC,0.00,WeatherDisplay:10.37,2013-04-03 14:10:00,
2013-04-03 10:15:00,78.3,66.9,30.03,ESE,115,15.0,15.0,68,0.00,,OVC,0.00,WeatherDisplay:10.37,2013-04-03 14:15:00,
2013-04-03 10:20:00,78.5,67.1,30.03,SE,131,5.8,5.8,68,0.00,,OVC,0.00,WeatherDisplay:10.37,2013-04-03 14:20:00,
2013-04-03 10:25:00,78.6,67.2,30.03,SE,129,0.0,0.0,68,0.00,,OVC,0.00,WeatherDisplay:10.37,2013-04-03 14:25:00,
2013-04-03 10:30:00,79.0,67.1,30.04,SE,139,1.2,0.0,67,0.00,,OVC,0.00,WeatherDisplay:10.37,2013-04-03 14:30:00,
2013-04-03 10:35:00,78.6,66.7,30.04,SSE,159,19.6,19.6,67,0.00,,OVC,0.00,WeatherDisplay:10.37,2013-04-03 14:35:00,
2013-04-03 10:40:00,79.0,67.1,30.04,SE,140,5.8,5.8,67,0.00,,OVC,0.00,WeatherDisplay:10.37,2013-04-03 14:40:00,
2013-04-03 10:45:00,79.2,66.9,30.03,SSE,155,23.0,23.0,66,0.00,,OVC,0.00,WeatherDisplay:10.37,2013-04-03 14:45:00,
2013-04-03 10:50:00,79.0,67.1,30.03,SE,138,2.3,2.3,67,0.00,,OVC,0.00,WeatherDisplay:10.37,2013-04-03 14:50:00,
2013-04-03 10:55:00,79.4,67.5,30.03,East,98,3.5,3.5,67,0.00,,OVC,0.00,WeatherDisplay:10.37,2013-04-03 14:55:00,
2013-04-03 11:00:00,79.6,67.2,30.02,SE,137,1.2,0.0,66,0.00,,OVC,0.00,WeatherDisplay:10.37,2013-04-03 15:00:00,
2013-04-03 11:05:00,79.8,67.0,30.02,ESE,115,11.5,0.0,65,0.00,,OVC,0.00,WeatherDisplay:10.37,2013-04-03 15:05:00,
2013-04-03 11:10:00,79.9,66.6,30.02,ESE,117,18.4,18.4,64,0.00,,OVC,0.00,WeatherDisplay:10.37,2013-04-03 15:10:00,
2013-04-03 11:15:00,79.9,66.6,30.02,ENE,63,0.0,0.0,64,0.00,,OVC,0.00,WeatherDisplay:10.37,2013-04-03 15:15:00,
2013-04-03 11:20:00,79.9,66.2,30.02,SSE,153,17.3,17.3,63,0.00,,OVC,0.00,WeatherDisplay:10.37,2013-04-03 15:20:00,
2013-04-03 11:25:00,79.6,66.3,30.02,SE,141,6.0,6.0,64,0.00,,OVC,0.00,WeatherDisplay:10.37,2013-04-03 15:25:00,
2013-04-03 11:30:00,79.6,66.8,30.01,SSE,161,0.0,0.0,65,0.00,,OVC,0.00,WeatherDisplay:10.37,2013-04-03 15:30:00,
2013-04-03 11:35:00,79.9,66.6,30.01,SSE,153,9.2,9.2,64,0.00,,OVC,0.00,WeatherDisplay:10.37,2013-04-03 15:35:00,
2013-04-03 11:40:00,79.9,66.2,30.01,SSE,162,11.5,11.5,63,0.00,,OVC,0.00,WeatherDisplay:10.37,2013-04-03 15:40:00,
2013-04-03 11:45:00,79.9,66.2,30.01,East,101,13.8,13.8,63,0.00,,OVC,0.00,WeatherDisplay:10.37,2013-04-03 15:45:00,
2013-04-03 11:50:00,80.3,66.1,30.01,SSE,155,11.5,11.5,62,0.00,,OVC,0.00,WeatherDisplay:10.37,2013-04-03 15:50:00,
2013-04-03 11:55:00,80.9,66.2,30.01,SE,146,10.0,10.0,61,0.00,,OVC,0.00,WeatherDisplay:10.37,2013-04-03 15:55:00,
2013-04-03 12:02:00,80.7,65.5,30.01,SE,132,20.7,20.7,60,0.00,,OVC,0.00,WeatherDisplay:10.37,2013-04-03 16:02:00,
2013-04-03 12:07:00,80.7,66.5,30.01,SE,138,4.6,5.6,62,0.00,,OVC,0.00,WeatherDisplay:10.37,2013-04-03 16:07:00,
2013-04-03 12:12:00,80.9,66.2,30.01,SSE,150,0.0,1.6,61,0.00,,OVC,0.00,WeatherDisplay:10.37,2013-04-03 16:12:00,
2013-04-03 12:17:00,80.9,66.7,30.01,SE,134,20.7,20.7,62,0.00,,OVC,0.00,WeatherDisplay:10.37,2013-04-03 16:17:00,
2013-04-03 12:22:00,80.9,66.2,30.01,SSE,154,18.4,18.4,61,0.00,,OVC,0.00,WeatherDisplay:10.37,2013-04-03 16:22:00,
2013-04-03 12:27:00,80.5,65.8,30.01,SSE,148,28.8,28.8,61,0.00,,OVC,0.00,WeatherDisplay:10.37,2013-04-03 16:27:00,
2013-04-03 12:32:00,80.7,66.0,30.00,WNW,294,24.2,24.2,61,0.00,,OVC,0.00,WeatherDisplay:10.37,2013-04-03 16:32:00,
2013-04-03 12:37:00,80.9,65.7,30.00,SSE,157,20.7,20.7,60,0.00,,OVC,0.00,WeatherDisplay:10.37,2013-04-03 16:37:00,
2013-04-03 12:42:00,81.2,66.0,30.00,SE,142,25.3,25.3,60,0.00,,OVC,0.00,WeatherDisplay:10.37,2013-04-03 16:42:00,
2013-04-03 12:47:00,80.9,66.2,30.00,SE,132,23.0,23.0,61,0.00,,OVC,0.00,WeatherDisplay:10.37,2013-04-03 16:47:00,
2013-04-03 12:52:00,81.1,65.9,30.00,East,100,25.3,25.3,60,0.00,,OVC,0.00,WeatherDisplay:10.37,2013-04-03 16:52:00,
2013-04-03 12:58:00,81.4,66.2,30.00,SE,143,24.0,24.0,60,0.00,,OVC,0.00,WeatherDisplay:10.37,2013-04-03 16:58:00,
2013-04-03 13:03:00,81.4,67.1,29.99,SE,138,9.2,0.0,62,0.00,,OVC,0.00,WeatherDisplay:10.37,2013-04-03 17:03:00,
2013-04-03 13:08:00,82.0,67.2,29.99,SSE,147,0.0,0.0,61,0.00,,OVC,0.00,WeatherDisplay:10.37,2013-04-03 17:08:00,
2013-04-03 13:13:00,81.6,66.8,29.99,SE,142,10.4,0.0,61,0.00,,OVC,0.00,WeatherDisplay:10.37,2013-04-03 17:13:00,
2013-04-03 13:18:00,80.7,65.5,29.99,ESE,120,18.4,18.4,60,0.00,,OVC,0.00,WeatherDisplay:10.37,2013-04-03 17:18:00,
2013-04-03 13:23:00,81.1,65.4,29.99,SE,140,13.8,13.8,59,0.00,,OVC,0.00,WeatherDisplay:10.37,2013-04-03 17:23:00,
2013-04-03 13:28:00,81.1,64.4,29.99,SSE,147,16.1,16.1,57,0.00,,OVC,0.00,WeatherDisplay:10.37,2013-04-03 17:28:00,
2013-04-03 13:33:00,81.4,66.2,29.99,East,93,11.5,11.5,60,0.00,,OVC,0.00,WeatherDisplay:10.37,2013-04-03 17:33:00,
2013-04-03 13:38:00,81.4,65.7,29.99,SSE,148,0.0,0.5,59,0.00,,OVC,0.00,WeatherDisplay:10.37,2013-04-03 17:38:00,
2013-04-03 13:43:00,81.8,66.1,29.99,SE,135,19.6,19.6,59,0.00,,OVC,0.00,WeatherDisplay:10.37,2013-04-03 17:43:00,
2013-04-03 13:48:00,82.0,65.3,30.00,SE,138,11.5,11.5,57,0.00,,OVC,0.00,WeatherDisplay:10.37,2013-04-03 17:48:00,
2013-04-03 13:53:00,82.2,64.4,30.00,SSE,160,27.6,27.6,55,0.00,,OVC,0.00,WeatherDisplay:10.37,2013-04-03 17:53:00,
2013-04-03 13:59:00,82.2,64.9,29.99,ENE,58,19.6,19.6,56,0.00,,OVC,0.00,WeatherDisplay:10.37,2013-04-03 17:59:00,
2013-04-03 14:04:00,82.2,66.0,29.99,SE,143,11.5,11.5,58,0.00,,OVC,0.00,WeatherDisplay:10.37,2013-04-03 18:04:00,
2013-04-03 14:09:00,82.2,64.9,29.99,South,188,21.9,21.9,56,0.00,,OVC,0.00,WeatherDisplay:10.37,2013-04-03 18:09:00,
2013-04-03 14:15:00,82.2,66.4,29.98,ESE,121,19.6,19.6,59,0.00,,OVC,0.00,WeatherDisplay:10.37,2013-04-03 18:15:00,
2013-04-03 14:20:00,82.4,66.1,29.98,SSE,150,17.3,17.3,58,0.00,,OVC,0.00,WeatherDisplay:10.37,2013-04-03 18:20:00,
2013-04-03 14:25:00,82.2,65.4,29.98,SSE,148,27.0,27.0,57,0.00,,OVC,0.00,WeatherDisplay:10.37,2013-04-03 18:25:00,
2013-04-03 14:30:00,82.2,66.4,29.98,SE,133,23.0,23.0,59,0.00,,OVC,0.00,WeatherDisplay:10.37,2013-04-03 18:30:00,
2013-04-03 14:35:00,82.6,66.3,29.98,SE,143,13.8,13.8,58,0.00,,OVC,0.00,WeatherDisplay:10.37,2013-04-03 18:35:00,
2013-04-03 14:40:00,82.4,66.6,29.98,SE,134,5.8,0.0,59,0.00,,OVC,0.00,WeatherDisplay:10.37,2013-04-03 18:40:00,
2013-04-03 14:45:00,82.4,66.1,29.97,ENE,63,0.0,0.0,58,0.00,,OVC,0.00,WeatherDisplay:10.37,2013-04-03 18:45:00,
2013-04-03 14:50:00,82.0,65.8,29.97,SSE,168,26.5,26.5,58,0.00,,OVC,0.00,WeatherDisplay:10.37,2013-04-03 18:50:00,
2013-04-03 14:55:00,81.6,66.8,29.97,SE,136,13.8,13.8,61,0.00,,OVC,0.00,WeatherDisplay:10.37,2013-04-03 18:55:00,
2013-04-03 15:00:00,82.0,65.8,29.98,NE,49,1.2,1.2,58,0.00,,OVC,0.00,WeatherDisplay:10.37,2013-04-03 19:00:00,
2013-04-03 15:05:00,82.0,66.3,29.98,SE,134,17.3,17.3,59,0.00,,OVC,0.00,WeatherDisplay:10.37,2013-04-03 19:05:00,
2013-04-03 15:10:00,82.0,68.6,29.98,SE,146,17.3,17.3,64,0.00,,OVC,0.00,WeatherDisplay:10.37,2013-04-03 19:10:00,
2013-04-03 15:15:00,82.4,66.6,29.97,SE,128,4.6,4.6,59,0.00,,OVC,0.00,WeatherDisplay:10.37,2013-04-03 19:15:00,
2013-04-03 15:20:00,82.2,66.9,29.97,ESE,123,24.2,24.2,60,0.00,,OVC,0.00,WeatherDisplay:10.37,2013-04-03 19:20:00,
2013-04-03 15:25:00,81.8,65.1,29.97,SE,142,26.0,26.0,57,0.00,,OVC,0.00,WeatherDisplay:10.37,2013-04-03 19:25:00,
2013-04-03 15:30:00,81.2,65.5,29.97,SE,134,24.2,24.2,59,0.00,,OVC,0.00,WeatherDisplay:10.37,2013-04-03 19:30:00,
2013-04-03 15:35:00,81.1,65.4,29.97,East,88,27.6,27.6,59,0.00,,OVC,0.00,WeatherDisplay:10.37,2013-04-03 19:35:00,
2013-04-03 15:40:00,81.1,65.9,29.97,SE,132,17.0,17.0,60,0.00,,OVC,0.00,WeatherDisplay:10.37,2013-04-03 19:40:00,
2013-04-03 15:45:00,80.9,65.7,29.97,SE,129,16.1,16.1,60,0.00,,OVC,0.00,WeatherDisplay:10.37,2013-04-03 19:45:00,
2013-04-03 15:50:00,81.2,65.5,29.97,SE,146,4.6,5.4,59,0.00,,OVC,0.00,WeatherDisplay:10.37,2013-04-03 19:50:00,
2013-04-03 15:56:00,80.9,66.2,29.97,SSE,147,3.5,3.5,61,0.00,,OVC,0.00,WeatherDisplay:10.37,2013-04-03 19:56:00,
2013-04-03 16:01:00,81.1,66.4,29.97,ESE,112,0.0,1.3,61,0.00,,OVC,0.00,WeatherDisplay:10.37,2013-04-03 20:01:00,
2013-04-03 16:06:00,81.4,66.7,29.97,SE,142,11.5,11.5,61,0.00,,OVC,0.00,WeatherDisplay:10.37,2013-04-03 20:06:00,
2013-04-03 16:11:00,81.4,66.2,29.97,SSE,151,11.5,11.5,60,0.00,,OVC,0.00,WeatherDisplay:10.37,2013-04-03 20:11:00,
2013-04-03 16:16:00,80.7,66.0,29.97,SE,144,18.4,18.4,61,0.00,,OVC,0.00,WeatherDisplay:10.37,2013-04-03 20:16:00,
2013-04-03 16:21:00,80.9,66.2,29.97,SE,140,3.5,6.8,61,0.00,,OVC,0.00,WeatherDisplay:10.37,2013-04-03 20:21:00,
2013-04-03 16:26:00,80.5,65.3,29.97,SSE,157,1.0,0.0,60,0.00,,OVC,0.00,WeatherDisplay:10.37,2013-04-03 20:26:00,
2013-04-03 16:31:00,80.5,65.8,29.96,SE,137,0.0,0.0,61,0.00,,OVC,0.00,WeatherDisplay:10.37,2013-04-03 20:31:00,
2013-04-03 16:36:00,80.5,66.3,29.96,SE,136,19.6,19.6,62,0.00,,OVC,0.00,WeatherDisplay:10.37,2013-04-03 20:36:00,
2013-04-03 16:41:00,80.3,65.1,29.96,SE,137,6.9,6.9,60,0.00,,OVC,0.00,WeatherDisplay:10.37,2013-04-03 20:41:00,
2013-04-03 16:46:00,80.5,65.3,29.97,ENE,69,12.7,12.7,60,0.00,,OVC,0.00,WeatherDisplay:10.37,2013-04-03 20:46:00,
2013-04-03 16:51:00,80.5,65.3,29.97,SSE,147,0.0,0.0,60,0.00,,OVC,0.00,WeatherDisplay:10.37,2013-04-03 20:51:00,
2013-04-03 16:56:00,80.3,65.6,29.97,SSE,147,13.8,0.0,61,0.00,,OVC,0.00,WeatherDisplay:10.37,2013-04-03 20:56:00,
2013-04-03 17:02:00,80.1,65.9,29.98,ESE,115,15.0,15.0,62,0.00,,OVC,0.00,WeatherDisplay:10.37,2013-04-03 21:02:00,
2013-04-03 17:07:00,80.1,66.8,29.98,SE,125,0.0,0.0,64,0.00,,OVC,0.00,WeatherDisplay:10.37,2013-04-03 21:07:00,
2013-04-03 17:12:00,80.1,66.8,29.98,SE,136,0.0,0.0,64,0.00,,OVC,0.00,WeatherDisplay:10.37,2013-04-03 21:12:00,
2013-04-03 17:17:00,80.1,66.4,29.97,NE,42,13.8,13.8,63,0.00,,OVC,0.00,WeatherDisplay:10.37,2013-04-03 21:17:00,
2013-04-03 17:22:00,80.3,66.6,29.97,SE,146,5.0,5.0,63,0.00,,OVC,0.00,WeatherDisplay:10.37,2013-04-03 21:22:00,
2013-04-03 17:27:00,80.3,66.1,29.97,East,94,0.0,0.0,62,0.00,,OVC,0.00,WeatherDisplay:10.37,2013-04-03 21:27:00,
2013-04-03 17:32:00,80.5,65.8,29.96,ENE,77,10.4,10.4,61,0.00,,OVC,0.00,WeatherDisplay:10.37,2013-04-03 21:32:00,
2013-04-03 17:37:00,80.5,66.7,29.96,East,90,3.5,3.5,63,0.00,,OVC,0.00,WeatherDisplay:10.37,2013-04-03 21:37:00,
2013-04-03 17:42:00,80.5,66.7,29.96,SE,132,3.5,3.5,63,0.00,,OVC,0.00,WeatherDisplay:10.37,2013-04-03 21:42:00,
2013-04-03 17:47:00,80.3,66.6,29.97,SSE,148,4.6,4.6,63,0.00,,OVC,0.00,WeatherDisplay:10.37,2013-04-03 21:47:00,
2013-04-03 17:52:00,80.1,66.8,29.97,SE,134,1.2,1.2,64,0.00,,OVC,0.00,WeatherDisplay:10.37,2013-04-03 21:52:00,
2013-04-03 17:57:00,79.8,67.0,29.97,East,83,0.0,0.0,65,0.00,,OVC,0.00,WeatherDisplay:10.37,2013-04-03 21:57:00,
2013-04-03 18:02:00,79.4,66.2,29.98,SE,146,16.1,16.1,64,0.00,,OVC,0.00,WeatherDisplay:10.37,2013-04-03 22:02:00,
2013-04-03 18:07:00,79.0,65.8,29.98,SE,126,3.5,0.0,64,0.00,,OVC,0.00,WeatherDisplay:10.37,2013-04-03 22:07:00,
2013-04-03 18:12:00,78.8,65.6,29.98,SE,146,0.0,0.0,64,0.00,,OVC,0.00,WeatherDisplay:10.37,2013-04-03 22:12:00,
2013-04-03 18:17:00,78.6,65.4,29.98,SE,138,0.0,0.0,64,0.00,,OVC,0.00,WeatherDisplay:10.37,2013-04-03 22:17:00,
2013-04-03 18:22:00,78.5,65.3,29.98,NE,38,0.0,0.0,64,0.00,,OVC,0.00,WeatherDisplay:10.37,2013-04-03 22:22:00,
2013-04-03 18:27:00,78.5,65.8,29.98,SE,137,0.0,0.0,65,0.00,,OVC,0.00,WeatherDisplay:10.37,2013-04-03 22:27:00,
2013-04-03 18:32:00,78.3,66.0,29.98,SE,126,0.0,0.0,66,0.00,,OVC,0.00,WeatherDisplay:10.37,2013-04-03 22:32:00,
2013-04-03 18:37:00,78.1,65.8,29.98,NE,55,3.5,3.5,66,0.00,,OVC,0.00,WeatherDisplay:10.37,2013-04-03 22:37:00,
2013-04-03 18:42:00,77.9,66.1,29.98,East,99,5.8,0.0,67,0.00,,OVC,0.00,WeatherDisplay:10.37,2013-04-03 22:42:00,
2013-04-03 18:47:00,77.7,65.9,29.99,SE,126,1.0,1.0,67,0.00,,OVC,0.00,WeatherDisplay:10.37,2013-04-03 22:47:00,
2013-04-03 18:52:00,77.6,65.8,29.99,SE,134,0.0,0.0,67,0.00,,OVC,0.00,WeatherDisplay:10.37,2013-04-03 22:52:00,
2013-04-03 18:57:00,77.4,66.0,29.99,SE,135,1.2,0.0,68,0.00,,OVC,0.00,WeatherDisplay:10.37,2013-04-03 22:57:00,
2013-04-03 19:02:00,77.4,66.4,29.98,SE,126,0.0,0.0,69,0.00,,OVC,0.00,WeatherDisplay:10.37,2013-04-03 23:02:00,
2013-04-03 19:07:00,77.2,66.2,29.98,SE,143,4.6,4.6,69,0.00,,OVC,0.00,WeatherDisplay:10.37,2013-04-03 23:07:00,
2013-04-03 19:12:00,76.8,66.3,29.98,ESE,123,3.5,0.0,70,0.00,,OVC,0.00,WeatherDisplay:10.37,2013-04-03 23:12:00,
2013-04-03 19:17:00,76.7,66.6,29.97,NE,48,0.0,0.1,71,0.00,,OVC,0.00,WeatherDisplay:10.37,2013-04-03 23:17:00,
2013-04-03 19:22:00,76.5,66.4,29.97,SE,138,0.0,0.2,71,0.00,,OVC,0.00,WeatherDisplay:10.37,2013-04-03 23:22:00,
2013-04-03 19:27:00,76.3,66.6,29.97,SE,141,4.6,0.0,72,0.00,,OVC,0.00,WeatherDisplay:10.37,2013-04-03 23:27:00,
2013-04-03 19:32:00,76.1,66.4,29.98,SE,131,6.9,6.9,72,0.00,,OVC,0.00,WeatherDisplay:10.37,2013-04-03 23:32:00,
2013-04-03 19:37:00,76.0,66.7,29.98,SE,130,12.7,12.7,73,0.00,,OVC,0.00,WeatherDisplay:10.37,2013-04-03 23:37:00,
2013-04-03 19:42:00,75.8,66.5,29.98,SE,136,11.5,0.0,73,0.00,,OVC,0.00,WeatherDisplay:10.37,2013-04-03 23:42:00,
2013-04-03 19:47:00,75.6,66.7,29.98,ENE,75,0.0,0.0,74,0.00,,OVC,0.00,WeatherDisplay:10.37,2013-04-03 23:47:00,
2013-04-03 19:53:00,75.6,66.7,29.98,ESE,104,0.0,0.0,74,0.00,,OVC,0.00,WeatherDisplay:10.37,2013-04-03 23:53:00,
2013-04-03 19:58:00,75.6,67.1,29.98,SE,138,0.0,0.0,75,0.00,,OVC,0.00,WeatherDisplay:10.37,2013-04-03 23:58:00,
2013-04-03 20:03:00,75.4,66.9,29.99,SE,143,0.0,0.9,75,0.00,,OVC,0.00,WeatherDisplay:10.37,2013-04-04 00:03:00,
2013-04-03 20:08:00,75.3,66.8,29.99,SE,143,0.0,0.0,75,0.00,,OVC,0.00,WeatherDisplay:10.37,2013-04-04 00:08:00,
2013-04-03 20:13:00,75.1,67.0,29.99,SE,137,0.0,0.0,76,0.00,,OVC,0.00,WeatherDisplay:10.37,2013-04-04 00:13:00,
2013-04-03 20:18:00,75.1,67.0,29.99,SE,135,0.0,0.0,76,0.00,,OVC,0.00,WeatherDisplay:10.37,2013-04-04 00:18:00,
2013-04-03 20:23:00,75.1,67.4,29.99,ESE,121,2.3,0.0,77,0.00,,OVC,0.00,WeatherDisplay:10.37,2013-04-04 00:23:00,
2013-04-03 20:29:00,74.9,67.2,29.99,SE,140,0.0,0.0,77,0.00,,OVC,0.00,WeatherDisplay:10.37,2013-04-04 00:29:00,
2013-04-03 20:34:00,74.7,67.4,29.99,SE,141,0.0,0.0,78,0.00,,OVC,0.00,WeatherDisplay:10.37,2013-04-04 00:34:00,
2013-04-03 20:39:00,74.6,67.3,29.99,East,101,10.4,0.0,78,0.00,,OVC,0.00,WeatherDisplay:10.37,2013-04-04 00:39:00,
2013-04-03 20:44:00,74.6,67.3,29.99,SE,138,0.0,0.0,78,0.00,,OVC,0.00,WeatherDisplay:10.37,2013-04-04 00:44:00,
2013-04-03 20:49:00,74.6,67.3,29.99,SE,131,0.0,0.0,78,0.00,,OVC,0.00,WeatherDisplay:10.37,2013-04-04 00:49:00,
2013-04-03 20:54:00,74.6,67.3,29.99,SE,129,4.6,4.6,78,0.00,,OVC,0.00,WeatherDisplay:10.37,2013-04-04 00:54:00,
2013-04-03 20:59:00,74.6,67.3,30.00,SE,134,17.3,17.3,78,0.00,,OVC,0.00,WeatherDisplay:10.37,2013-04-04 00:59:00,
2013-04-03 21:04:00,74.6,67.3,30.00,ESE,113,0.0,0.0,78,0.00,,OVC,0.00,WeatherDisplay:10.37,2013-04-04 01:04:00,
2013-04-03 21:09:00,74.6,67.7,30.00,SE,130,3.5,3.5,79,0.00,,OVC,0.00,WeatherDisplay:10.37,2013-04-04 01:09:00,
2013-04-03 21:15:00,74.6,67.7,30.00,SE,142,4.6,0.0,79,0.00,,OVC,0.00,WeatherDisplay:10.37,2013-04-04 01:15:00,
2013-04-03 21:20:00,74.7,68.1,30.00,SE,138,8.1,8.5,80,0.00,,OVC,0.00,WeatherDisplay:10.37,2013-04-04 01:20:00,
2013-04-03 21:25:00,74.9,68.7,30.00,ESE,120,8.1,0.0,81,0.00,,OVC,0.00,WeatherDisplay:10.37,2013-04-04 01:25:00,
2013-04-03 21:30:00,74.9,68.7,30.00,SE,142,0.0,0.0,81,0.00,,OVC,0.00,WeatherDisplay:10.37,2013-04-04 01:30:00,
2013-04-03 21:35:00,74.7,68.5,30.00,SE,137,0.0,1.0,81,0.00,,OVC,0.00,WeatherDisplay:10.37,2013-04-04 01:35:00,
2013-04-03 21:40:00,74.9,68.7,30.00,SE,140,1.2,0.0,81,0.00,,OVC,0.00,WeatherDisplay:10.37,2013-04-04 01:40:00,
2013-04-03 21:45:00,74.9,69.0,30.00,SE,144,1.2,0.0,82,0.00,,OVC,0.00,WeatherDisplay:10.37,2013-04-04 01:45:00,
2013-04-03 21:50:00,74.9,69.0,30.00,SSE,150,16.1,16.1,82,0.00,,OVC,0.00,WeatherDisplay:10.37,2013-04-04 01:50:00,
2013-04-03 21:55:00,74.9,68.7,30.00,SE,139,0.0,0.0,81,0.00,,OVC,0.00,WeatherDisplay:10.37,2013-04-04 01:55:00,
2013-04-03 22:00:00,74.7,68.8,30.01,SE,131,0.0,0.0,82,0.00,,OVC,0.00,WeatherDisplay:10.37,2013-04-04 02:00:00,
2013-04-03 22:05:00,74.9,69.0,30.01,SE,135,0.0,0.0,82,0.00,,OVC,0.00,WeatherDisplay:10.37,2013-04-04 02:05:00,
2013-04-03 22:10:00,74.9,69.0,30.01,ESE,117,2.0,0.0,82,0.00,,OVC,0.00,WeatherDisplay:10.37,2013-04-04 02:10:00,
2013-04-03 22:15:00,74.9,69.0,30.01,SE,130,9.2,9.2,82,0.00,,OVC,0.00,WeatherDisplay:10.37,2013-04-04 02:15:00,
2013-04-03 22:20:00,74.9,68.7,30.01,SE,129,0.0,0.0,81,0.00,,OVC,0.00,WeatherDisplay:10.37,2013-04-04 02:20:00,
2013-04-03 22:25:00,74.9,68.7,30.01,SE,140,1.2,0.0,81,0.00,,OVC,0.00,WeatherDisplay:10.37,2013-04-04 02:25:00,
2013-04-03 22:30:00,74.9,68.7,30.01,SE,134,0.0,0.0,81,0.00,,OVC,0.00,WeatherDisplay:10.37,2013-04-04 02:30:00,
2013-04-03 22:35:00,74.9,68.7,30.01,SE,134,5.8,5.8,81,0.00,,OVC,0.00,WeatherDisplay:10.37,2013-04-04 02:35:00,
2013-04-03 22:41:00,74.9,68.7,30.01,SE,130,0.0,0.0,81,0.00,,OVC,0.00,WeatherDisplay:10.37,2013-04-04 02:41:00,
2013-04-03 22:46:00,74.7,68.5,30.00,ESE,106,9.2,9.2,81,0.00,,OVC,0.00,WeatherDisplay:10.37,2013-04-04 02:46:00,
2013-04-03 22:51:00,74.7,68.5,30.00,ESE,122,0.0,0.0,81,0.00,,OVC,0.00,WeatherDisplay:10.37,2013-04-04 02:51:00,
2013-04-03 22:56:00,74.7,68.5,30.00,SE,134,1.2,1.2,81,0.00,,OVC,0.00,WeatherDisplay:10.37,2013-04-04 02:56:00,
2013-04-03 23:01:00,74.7,68.5,30.00,SE,138,0.0,0.0,81,0.00,,OVC,0.00,WeatherDisplay:10.37,2013-04-04 03:01:00,
2013-04-03 23:06:00,74.7,68.5,30.00,SE,136,2.3,2.3,81,0.00,,OVC,0.00,WeatherDisplay:10.37,2013-04-04 03:06:00,
2013-04-03 23:11:00,74.7,68.5,30.00,SE,141,0.0,0.0,81,0.00,,OVC,0.00,WeatherDisplay:10.37,2013-04-04 03:11:00,
2013-04-03 23:16:00,74.7,68.5,30.01,SE,139,1.2,0.0,81,0.00,,OVC,0.00,WeatherDisplay:10.37,2013-04-04 03:16:00,
2013-04-03 23:21:00,74.7,68.5,30.01,SE,144,0.0,0.0,81,0.00,,OVC,0.00,WeatherDisplay:10.37,2013-04-04 03:21:00,
2013-04-03 23:26:00,74.6,68.7,30.01,SE,128,1.2,0.0,82,0.00,,OVC,0.00,WeatherDisplay:10.37,2013-04-04 03:26:00,
2013-04-03 23:31:00,74.6,68.7,30.01,SE,130,0.0,0.0,82,0.00,,OVC,0.00,WeatherDisplay:10.37,2013-04-04 03:31:00,
2013-04-03 23:36:00,74.6,68.7,30.01,SE,128,0.0,0.0,82,0.00,,OVC,0.00,WeatherDisplay:10.37,2013-04-04 03:36:00,
2013-04-03 23:41:00,74.6,68.7,30.01,SE,129,0.0,0.0,82,0.00,,OVC,0.00,WeatherDisplay:10.37,2013-04-04 03:41:00,
2013-04-03 23:47:00,74.6,68.7,30.02,SSE,147,0.0,0.0,82,0.00,,OVC,0.00,WeatherDisplay:10.37,2013-04-04 03:47:00,
2013-04-03 23:52:00,74.4,68.5,30.02,SE,146,0.0,0.0,82,0.00,,OVC,0.00,WeatherDisplay:10.37,2013-04-04 03:52:00,
2013-04-03 23:57:00,74.4,68.9,30.02,SE,141,0.0,0.0,83,0.00,,OVC,0.00,WeatherDisplay:10.37,2013-04-04 03:57:00,